sensor_id;sensor_type;location;lat;lon;timestamp;P1;durP1;ratioP1;P2;durP2;ratioP2
71038;SDS011;58692;43.212;27.908;2022-08-19T00:01:34;19.70;;;13.10;;
71038;SDS011;58692;43.212;27.908;2022-08-19T00:04:03;19.35;;;12.20;;
71038;SDS011;58692;43.212;27.908;2022-08-19T00:06:30;19.65;;;12.35;;
71038;SDS011;58692;43.212;27.908;2022-08-19T00:08:56;17.97;;;12.90;;
71038;SDS011;58692;43.212;27.908;2022-08-19T00:11:23;19.70;;;12.48;;
71038;SDS011;58692;43.212;27.908;2022-08-19T00:13:50;16.38;;;11.95;;
71038;SDS011;58692;43.212;27.908;2022-08-19T00:16:16;17.33;;;12.03;;
71038;SDS011;58692;43.212;27.908;2022-08-19T00:18:45;18.38;;;11.50;;
71038;SDS011;58692;43.212;27.908;2022-08-19T00:21:12;17.52;;;11.88;;
71038;SDS011;58692;43.212;27.908;2022-08-19T00:23:38;21.07;;;11.53;;
71038;SDS011;58692;43.212;27.908;2022-08-19T00:26:04;21.13;;;13.45;;
71038;SDS011;58692;43.212;27.908;2022-08-19T00:28:30;21.43;;;14.73;;
71038;SDS011;58692;43.212;27.908;2022-08-19T00:30:56;21.90;;;15.43;;
71038;SDS011;58692;43.212;27.908;2022-08-19T00:33:22;20.85;;;15.07;;
71038;SDS011;58692;43.212;27.908;2022-08-19T00:35:47;20.90;;;14.80;;
71038;SDS011;58692;43.212;27.908;2022-08-19T00:38:13;20.75;;;13.02;;
71038;SDS011;58692;43.212;27.908;2022-08-19T00:40:39;18.97;;;12.03;;
71038;SDS011;58692;43.212;27.908;2022-08-19T00:43:12;19.73;;;12.13;;
71038;SDS011;58692;43.212;27.908;2022-08-19T00:45:38;19.90;;;11.65;;
71038;SDS011;58692;43.212;27.908;2022-08-19T00:48:08;19.70;;;11.98;;
71038;SDS011;58692;43.212;27.908;2022-08-19T00:50:34;20.33;;;11.73;;
71038;SDS011;58692;43.212;27.908;2022-08-19T00:53:00;17.23;;;10.85;;
71038;SDS011;58692;43.212;27.908;2022-08-19T00:55:28;19.02;;;11.40;;
71038;SDS011;58692;43.212;27.908;2022-08-19T00:57:56;16.63;;;10.60;;
71038;SDS011;58692;43.212;27.908;2022-08-19T01:00:26;17.58;;;11.27;;
71038;SDS011;58692;43.212;27.908;2022-08-19T01:02:52;16.00;;;10.20;;
71038;SDS011;58692;43.212;27.908;2022-08-19T01:05:21;16.35;;;10.77;;
71038;SDS011;58692;43.212;27.908;2022-08-19T01:07:52;19.35;;;12.60;;
71038;SDS011;58692;43.212;27.908;2022-08-19T01:10:21;17.40;;;12.93;;
71038;SDS011;58692;43.212;27.908;2022-08-19T01:12:50;18.88;;;12.18;;
71038;SDS011;58692;43.212;27.908;2022-08-19T01:15:18;21.45;;;11.98;;
71038;SDS011;58692;43.212;27.908;2022-08-19T01:17:48;18.95;;;12.13;;
71038;SDS011;58692;43.212;27.908;2022-08-19T01:20:15;17.75;;;11.63;;
71038;SDS011;58692;43.212;27.908;2022-08-19T01:22:46;18.73;;;12.27;;
71038;SDS011;58692;43.212;27.908;2022-08-19T01:25:14;20.30;;;12.38;;
71038;SDS011;58692;43.212;27.908;2022-08-19T01:27:44;18.65;;;11.48;;
71038;SDS011;58692;43.212;27.908;2022-08-19T01:30:14;20.70;;;13.65;;
71038;SDS011;58692;43.212;27.908;2022-08-19T01:32:42;22.13;;;13.10;;
71038;SDS011;58692;43.212;27.908;2022-08-19T01:35:08;23.93;;;13.57;;
71038;SDS011;58692;43.212;27.908;2022-08-19T01:37:43;21.92;;;14.35;;
71038;SDS011;58692;43.212;27.908;2022-08-19T01:40:09;20.10;;;14.13;;
71038;SDS011;58692;43.212;27.908;2022-08-19T01:42:35;23.37;;;14.00;;
71038;SDS011;58692;43.212;27.908;2022-08-19T01:45:00;24.48;;;14.50;;
71038;SDS011;58692;43.212;27.908;2022-08-19T01:47:26;23.53;;;14.27;;
71038;SDS011;58692;43.212;27.908;2022-08-19T01:49:51;23.97;;;14.50;;
71038;SDS011;58692;43.212;27.908;2022-08-19T01:52:17;21.27;;;14.32;;
71038;SDS011;58692;43.212;27.908;2022-08-19T01:54:43;23.10;;;14.80;;
71038;SDS011;58692;43.212;27.908;2022-08-19T01:57:10;22.90;;;14.75;;
71038;SDS011;58692;43.212;27.908;2022-08-19T01:59:37;23.00;;;14.30;;
71038;SDS011;58692;43.212;27.908;2022-08-19T02:02:06;22.52;;;13.65;;
71038;SDS011;58692;43.212;27.908;2022-08-19T02:04:32;21.27;;;13.85;;
71038;SDS011;58692;43.212;27.908;2022-08-19T02:06:59;23.13;;;12.68;;
71038;SDS011;58692;43.212;27.908;2022-08-19T02:09:24;20.83;;;12.70;;
71038;SDS011;58692;43.212;27.908;2022-08-19T02:11:50;19.25;;;12.20;;
71038;SDS011;58692;43.212;27.908;2022-08-19T02:14:15;18.57;;;12.50;;
71038;SDS011;58692;43.212;27.908;2022-08-19T02:16:41;20.37;;;12.23;;
71038;SDS011;58692;43.212;27.908;2022-08-19T02:19:06;18.85;;;11.40;;
71038;SDS011;58692;43.212;27.908;2022-08-19T02:21:32;19.10;;;11.80;;
71038;SDS011;58692;43.212;27.908;2022-08-19T02:23:59;16.67;;;10.95;;
71038;SDS011;58692;43.212;27.908;2022-08-19T02:26:25;16.85;;;11.38;;
71038;SDS011;58692;43.212;27.908;2022-08-19T02:28:51;16.95;;;11.43;;
71038;SDS011;58692;43.212;27.908;2022-08-19T02:31:19;16.03;;;11.43;;
71038;SDS011;58692;43.212;27.908;2022-08-19T02:33:47;18.92;;;12.13;;
71038;SDS011;58692;43.212;27.908;2022-08-19T02:36:14;18.48;;;11.95;;
71038;SDS011;58692;43.212;27.908;2022-08-19T02:38:41;16.88;;;11.88;;
71038;SDS011;58692;43.212;27.908;2022-08-19T02:43:50;20.60;;;13.67;;
71038;SDS011;58692;43.212;27.908;2022-08-19T02:46:24;23.77;;;14.02;;
71038;SDS011;58692;43.212;27.908;2022-08-19T02:48:53;19.73;;;13.93;;
71038;SDS011;58692;43.212;27.908;2022-08-19T02:51:24;22.65;;;13.50;;
71038;SDS011;58692;43.212;27.908;2022-08-19T02:53:52;27.70;;;15.27;;
71038;SDS011;58692;43.212;27.908;2022-08-19T02:56:18;28.92;;;15.27;;
71038;SDS011;58692;43.212;27.908;2022-08-19T02:58:44;24.17;;;15.52;;
71038;SDS011;58692;43.212;27.908;2022-08-19T03:01:11;25.73;;;16.30;;
71038;SDS011;58692;43.212;27.908;2022-08-19T03:03:44;25.67;;;15.88;;
71038;SDS011;58692;43.212;27.908;2022-08-19T03:06:11;27.90;;;17.60;;
71038;SDS011;58692;43.212;27.908;2022-08-19T03:08:38;27.03;;;17.20;;
71038;SDS011;58692;43.212;27.908;2022-08-19T03:11:05;26.35;;;16.73;;
71038;SDS011;58692;43.212;27.908;2022-08-19T03:13:31;24.92;;;17.08;;
71038;SDS011;58692;43.212;27.908;2022-08-19T03:15:57;30.83;;;16.85;;
71038;SDS011;58692;43.212;27.908;2022-08-19T03:18:23;30.47;;;16.33;;
71038;SDS011;58692;43.212;27.908;2022-08-19T03:20:49;23.40;;;15.48;;
71038;SDS011;58692;43.212;27.908;2022-08-19T03:23:19;21.83;;;15.30;;
71038;SDS011;58692;43.212;27.908;2022-08-19T03:25:47;22.27;;;14.80;;
71038;SDS011;58692;43.212;27.908;2022-08-19T03:28:15;23.20;;;14.20;;
71038;SDS011;58692;43.212;27.908;2022-08-19T03:30:41;20.95;;;14.00;;
71038;SDS011;58692;43.212;27.908;2022-08-19T03:33:09;21.00;;;13.32;;
71038;SDS011;58692;43.212;27.908;2022-08-19T03:35:37;24.40;;;13.73;;
71038;SDS011;58692;43.212;27.908;2022-08-19T03:38:03;19.53;;;12.90;;
71038;SDS011;58692;43.212;27.908;2022-08-19T03:40:29;22.23;;;12.98;;
71038;SDS011;58692;43.212;27.908;2022-08-19T03:42:55;19.08;;;13.25;;
71038;SDS011;58692;43.212;27.908;2022-08-19T03:45:23;19.90;;;12.57;;
71038;SDS011;58692;43.212;27.908;2022-08-19T03:47:49;23.35;;;12.93;;
71038;SDS011;58692;43.212;27.908;2022-08-19T03:50:15;18.57;;;11.47;;
71038;SDS011;58692;43.212;27.908;2022-08-19T03:52:40;19.27;;;12.05;;
71038;SDS011;58692;43.212;27.908;2022-08-19T03:55:06;21.67;;;13.20;;
71038;SDS011;58692;43.212;27.908;2022-08-19T03:57:32;22.73;;;12.82;;
71038;SDS011;58692;43.212;27.908;2022-08-19T03:59:59;20.85;;;12.13;;
71038;SDS011;58692;43.212;27.908;2022-08-19T04:02:25;22.60;;;11.90;;
71038;SDS011;58692;43.212;27.908;2022-08-19T04:04:52;22.98;;;13.13;;
71038;SDS011;58692;43.212;27.908;2022-08-19T04:07:19;23.27;;;13.90;;
71038;SDS011;58692;43.212;27.908;2022-08-19T04:09:46;20.33;;;13.00;;
71038;SDS011;58692;43.212;27.908;2022-08-19T04:12:12;20.52;;;12.73;;
71038;SDS011;58692;43.212;27.908;2022-08-19T04:14:38;18.75;;;11.75;;
71038;SDS011;58692;43.212;27.908;2022-08-19T04:17:04;19.55;;;12.90;;
71038;SDS011;58692;43.212;27.908;2022-08-19T04:19:31;21.45;;;12.20;;
71038;SDS011;58692;43.212;27.908;2022-08-19T04:21:57;21.07;;;13.50;;
71038;SDS011;58692;43.212;27.908;2022-08-19T04:24:23;20.38;;;13.30;;
71038;SDS011;58692;43.212;27.908;2022-08-19T04:26:49;20.30;;;12.68;;
71038;SDS011;58692;43.212;27.908;2022-08-19T04:29:18;21.98;;;13.35;;
71038;SDS011;58692;43.212;27.908;2022-08-19T04:31:49;17.87;;;12.33;;
71038;SDS011;58692;43.212;27.908;2022-08-19T04:34:18;24.33;;;13.40;;
71038;SDS011;58692;43.212;27.908;2022-08-19T04:36:47;20.75;;;13.32;;
71038;SDS011;58692;43.212;27.908;2022-08-19T04:39:16;19.10;;;13.32;;
71038;SDS011;58692;43.212;27.908;2022-08-19T04:41:44;19.95;;;14.00;;
71038;SDS011;58692;43.212;27.908;2022-08-19T04:44:25;24.97;;;15.03;;
71038;SDS011;58692;43.212;27.908;2022-08-19T04:46:51;21.88;;;13.68;;
71038;SDS011;58692;43.212;27.908;2022-08-19T04:49:18;21.23;;;14.23;;
71038;SDS011;58692;43.212;27.908;2022-08-19T04:51:47;22.45;;;15.68;;
71038;SDS011;58692;43.212;27.908;2022-08-19T04:54:13;22.97;;;14.83;;
71038;SDS011;58692;43.212;27.908;2022-08-19T04:56:40;21.65;;;14.65;;
71038;SDS011;58692;43.212;27.908;2022-08-19T04:59:06;25.70;;;14.55;;
71038;SDS011;58692;43.212;27.908;2022-08-19T05:01:32;20.45;;;13.80;;
71038;SDS011;58692;43.212;27.908;2022-08-19T05:04:00;20.10;;;13.60;;
71038;SDS011;58692;43.212;27.908;2022-08-19T05:06:26;21.83;;;14.82;;
71038;SDS011;58692;43.212;27.908;2022-08-19T05:08:53;19.60;;;14.38;;
71038;SDS011;58692;43.212;27.908;2022-08-19T05:11:21;22.25;;;14.20;;
71038;SDS011;58692;43.212;27.908;2022-08-19T05:13:49;20.73;;;13.60;;
71038;SDS011;58692;43.212;27.908;2022-08-19T05:16:16;19.83;;;13.00;;
71038;SDS011;58692;43.212;27.908;2022-08-19T05:18:43;17.45;;;12.27;;
71038;SDS011;58692;43.212;27.908;2022-08-19T05:21:24;19.05;;;12.57;;
71038;SDS011;58692;43.212;27.908;2022-08-19T05:24:06;17.67;;;12.17;;
71038;SDS011;58692;43.212;27.908;2022-08-19T05:26:37;18.73;;;12.20;;
71038;SDS011;58692;43.212;27.908;2022-08-19T05:29:04;19.05;;;11.68;;
71038;SDS011;58692;43.212;27.908;2022-08-19T05:31:32;19.85;;;11.90;;
71038;SDS011;58692;43.212;27.908;2022-08-19T05:33:58;20.95;;;11.60;;
71038;SDS011;58692;43.212;27.908;2022-08-19T05:36:25;25.13;;;13.00;;
71038;SDS011;58692;43.212;27.908;2022-08-19T05:38:51;18.08;;;11.35;;
71038;SDS011;58692;43.212;27.908;2022-08-19T05:41:18;17.27;;;10.30;;
71038;SDS011;58692;43.212;27.908;2022-08-19T05:43:44;15.75;;;9.73;;
71038;SDS011;58692;43.212;27.908;2022-08-19T05:46:15;17.37;;;11.07;;
71038;SDS011;58692;43.212;27.908;2022-08-19T05:48:43;18.20;;;10.20;;
71038;SDS011;58692;43.212;27.908;2022-08-19T05:51:09;14.48;;;9.85;;
71038;SDS011;58692;43.212;27.908;2022-08-19T05:53:35;15.52;;;9.98;;
71038;SDS011;58692;43.212;27.908;2022-08-19T05:56:03;17.53;;;10.10;;
71038;SDS011;58692;43.212;27.908;2022-08-19T05:58:30;14.50;;;9.45;;
71038;SDS011;58692;43.212;27.908;2022-08-19T06:00:57;18.83;;;9.77;;
71038;SDS011;58692;43.212;27.908;2022-08-19T06:03:23;15.93;;;9.80;;
71038;SDS011;58692;43.212;27.908;2022-08-19T06:05:49;14.18;;;8.93;;
71038;SDS011;58692;43.212;27.908;2022-08-19T06:08:14;17.30;;;9.60;;
71038;SDS011;58692;43.212;27.908;2022-08-19T06:10:40;14.00;;;9.23;;
71038;SDS011;58692;43.212;27.908;2022-08-19T06:13:05;13.10;;;9.30;;
71038;SDS011;58692;43.212;27.908;2022-08-19T06:15:31;14.50;;;9.43;;
71038;SDS011;58692;43.212;27.908;2022-08-19T06:17:56;16.00;;;9.77;;
71038;SDS011;58692;43.212;27.908;2022-08-19T06:20:22;14.27;;;9.45;;
71038;SDS011;58692;43.212;27.908;2022-08-19T06:22:48;13.37;;;9.63;;
71038;SDS011;58692;43.212;27.908;2022-08-19T06:25:16;14.77;;;9.13;;
71038;SDS011;58692;43.212;27.908;2022-08-19T06:27:42;14.38;;;9.63;;
71038;SDS011;58692;43.212;27.908;2022-08-19T06:30:08;14.55;;;9.05;;
71038;SDS011;58692;43.212;27.908;2022-08-19T06:32:37;14.47;;;9.03;;
71038;SDS011;58692;43.212;27.908;2022-08-19T06:35:04;12.90;;;8.93;;
71038;SDS011;58692;43.212;27.908;2022-08-19T06:37:30;14.20;;;9.13;;
71038;SDS011;58692;43.212;27.908;2022-08-19T06:39:56;12.70;;;8.87;;
71038;SDS011;58692;43.212;27.908;2022-08-19T06:42:21;12.55;;;9.23;;
71038;SDS011;58692;43.212;27.908;2022-08-19T06:44:47;12.83;;;8.67;;
71038;SDS011;58692;43.212;27.908;2022-08-19T06:47:15;14.13;;;9.02;;
71038;SDS011;58692;43.212;27.908;2022-08-19T06:49:44;13.95;;;8.80;;
71038;SDS011;58692;43.212;27.908;2022-08-19T06:52:10;13.67;;;9.07;;
71038;SDS011;58692;43.212;27.908;2022-08-19T06:54:37;12.75;;;8.20;;
71038;SDS011;58692;43.212;27.908;2022-08-19T06:57:04;13.30;;;9.20;;
71038;SDS011;58692;43.212;27.908;2022-08-19T06:59:32;15.88;;;9.05;;
71038;SDS011;58692;43.212;27.908;2022-08-19T07:01:59;14.57;;;9.43;;
71038;SDS011;58692;43.212;27.908;2022-08-19T07:04:29;14.87;;;8.13;;
71038;SDS011;58692;43.212;27.908;2022-08-19T07:06:59;13.15;;;8.55;;
71038;SDS011;58692;43.212;27.908;2022-08-19T07:09:26;14.45;;;9.25;;
71038;SDS011;58692;43.212;27.908;2022-08-19T07:11:53;14.27;;;9.00;;
71038;SDS011;58692;43.212;27.908;2022-08-19T07:14:20;13.57;;;8.97;;
71038;SDS011;58692;43.212;27.908;2022-08-19T07:16:50;12.95;;;8.60;;
71038;SDS011;58692;43.212;27.908;2022-08-19T07:19:17;12.85;;;8.70;;
71038;SDS011;58692;43.212;27.908;2022-08-19T07:21:44;15.00;;;8.75;;
71038;SDS011;58692;43.212;27.908;2022-08-19T07:24:11;13.57;;;8.32;;
71038;SDS011;58692;43.212;27.908;2022-08-19T07:26:38;14.63;;;8.80;;
71038;SDS011;58692;43.212;27.908;2022-08-19T07:29:06;12.75;;;8.57;;
71038;SDS011;58692;43.212;27.908;2022-08-19T07:31:32;14.15;;;8.75;;
71038;SDS011;58692;43.212;27.908;2022-08-19T07:34:02;14.32;;;8.73;;
71038;SDS011;58692;43.212;27.908;2022-08-19T07:36:32;13.07;;;8.65;;
71038;SDS011;58692;43.212;27.908;2022-08-19T07:39:02;15.50;;;8.93;;
71038;SDS011;58692;43.212;27.908;2022-08-19T07:41:30;14.95;;;8.68;;
71038;SDS011;58692;43.212;27.908;2022-08-19T07:43:57;12.00;;;8.90;;
71038;SDS011;58692;43.212;27.908;2022-08-19T07:46:30;12.77;;;8.73;;
71038;SDS011;58692;43.212;27.908;2022-08-19T07:48:56;12.68;;;8.63;;
71038;SDS011;58692;43.212;27.908;2022-08-19T07:51:22;15.20;;;9.20;;
71038;SDS011;58692;43.212;27.908;2022-08-19T07:53:48;14.38;;;8.45;;
71038;SDS011;58692;43.212;27.908;2022-08-19T07:56:20;12.13;;;8.60;;
71038;SDS011;58692;43.212;27.908;2022-08-19T07:58:48;14.82;;;8.55;;
71038;SDS011;58692;43.212;27.908;2022-08-19T08:01:16;14.27;;;9.03;;
71038;SDS011;58692;43.212;27.908;2022-08-19T08:03:45;12.25;;;8.57;;
71038;SDS011;58692;43.212;27.908;2022-08-19T08:06:27;14.57;;;8.48;;
71038;SDS011;58692;43.212;27.908;2022-08-19T08:09:13;13.52;;;7.97;;
71038;SDS011;58692;43.212;27.908;2022-08-19T08:11:50;15.10;;;7.88;;
71038;SDS011;58692;43.212;27.908;2022-08-19T08:14:19;11.00;;;8.20;;
71038;SDS011;58692;43.212;27.908;2022-08-19T08:16:48;14.20;;;8.02;;
71038;SDS011;58692;43.212;27.908;2022-08-19T08:19:16;16.00;;;8.07;;
71038;SDS011;58692;43.212;27.908;2022-08-19T08:21:43;16.70;;;8.63;;
71038;SDS011;58692;43.212;27.908;2022-08-19T08:24:09;11.20;;;7.63;;
71038;SDS011;58692;43.212;27.908;2022-08-19T08:26:36;13.57;;;7.63;;
71038;SDS011;58692;43.212;27.908;2022-08-19T08:29:01;14.93;;;7.45;;
71038;SDS011;58692;43.212;27.908;2022-08-19T08:31:28;15.75;;;7.60;;
71038;SDS011;58692;43.212;27.908;2022-08-19T08:33:53;15.67;;;7.90;;
71038;SDS011;58692;43.212;27.908;2022-08-19T08:36:19;11.70;;;7.60;;
71038;SDS011;58692;43.212;27.908;2022-08-19T08:38:45;10.60;;;7.00;;
71038;SDS011;58692;43.212;27.908;2022-08-19T08:43:46;11.60;;;7.85;;
71038;SDS011;58692;43.212;27.908;2022-08-19T08:49:06;11.43;;;7.47;;
71038;SDS011;58692;43.212;27.908;2022-08-19T08:51:42;13.52;;;7.97;;
71038;SDS011;58692;43.212;27.908;2022-08-19T08:54:13;11.97;;;7.73;;
71038;SDS011;58692;43.212;27.908;2022-08-19T08:56:43;14.38;;;8.02;;
71038;SDS011;58692;43.212;27.908;2022-08-19T09:01:51;12.52;;;7.65;;
71038;SDS011;58692;43.212;27.908;2022-08-19T09:04:16;12.13;;;7.60;;
71038;SDS011;58692;43.212;27.908;2022-08-19T09:09:26;11.70;;;7.15;;
71038;SDS011;58692;43.212;27.908;2022-08-19T09:14:37;12.38;;;6.97;;
71038;SDS011;58692;43.212;27.908;2022-08-19T09:17:11;11.57;;;7.05;;
71038;SDS011;58692;43.212;27.908;2022-08-19T09:22:21;14.23;;;7.75;;
71038;SDS011;58692;43.212;27.908;2022-08-19T09:24:49;13.90;;;7.27;;
71038;SDS011;58692;43.212;27.908;2022-08-19T09:27:17;12.57;;;7.40;;
71038;SDS011;58692;43.212;27.908;2022-08-19T09:29:44;12.32;;;7.05;;
71038;SDS011;58692;43.212;27.908;2022-08-19T09:32:09;12.45;;;7.18;;
71038;SDS011;58692;43.212;27.908;2022-08-19T09:34:35;15.77;;;7.33;;
71038;SDS011;58692;43.212;27.908;2022-08-19T09:37:01;11.68;;;7.13;;
71038;SDS011;58692;43.212;27.908;2022-08-19T09:39:28;13.10;;;7.17;;
71038;SDS011;58692;43.212;27.908;2022-08-19T09:41:55;13.45;;;7.43;;
71038;SDS011;58692;43.212;27.908;2022-08-19T09:44:21;15.50;;;7.85;;
71038;SDS011;58692;43.212;27.908;2022-08-19T09:46:47;11.75;;;7.78;;
71038;SDS011;58692;43.212;27.908;2022-08-19T09:49:12;11.90;;;7.70;;
71038;SDS011;58692;43.212;27.908;2022-08-19T09:51:38;12.00;;;7.53;;
71038;SDS011;58692;43.212;27.908;2022-08-19T09:54:04;14.03;;;7.40;;
71038;SDS011;58692;43.212;27.908;2022-08-19T09:56:29;11.13;;;7.03;;
71038;SDS011;58692;43.212;27.908;2022-08-19T09:58:58;14.10;;;7.50;;
71038;SDS011;58692;43.212;27.908;2022-08-19T10:01:26;12.73;;;7.72;;
71038;SDS011;58692;43.212;27.908;2022-08-19T10:03:54;13.75;;;7.82;;
71038;SDS011;58692;43.212;27.908;2022-08-19T10:06:22;14.63;;;7.43;;
71038;SDS011;58692;43.212;27.908;2022-08-19T10:08:51;12.53;;;7.43;;
71038;SDS011;58692;43.212;27.908;2022-08-19T10:11:18;10.95;;;7.60;;
71038;SDS011;58692;43.212;27.908;2022-08-19T10:13:45;11.95;;;8.43;;
71038;SDS011;58692;43.212;27.908;2022-08-19T10:16:13;13.48;;;7.93;;
71038;SDS011;58692;43.212;27.908;2022-08-19T10:18:41;12.18;;;7.60;;
71038;SDS011;58692;43.212;27.908;2022-08-19T10:23:37;10.77;;;7.53;;
71038;SDS011;58692;43.212;27.908;2022-08-19T10:26:04;13.13;;;7.35;;
71038;SDS011;58692;43.212;27.908;2022-08-19T10:28:33;15.25;;;7.07;;
71038;SDS011;58692;43.212;27.908;2022-08-19T10:31:04;15.30;;;8.45;;
71038;SDS011;58692;43.212;27.908;2022-08-19T10:33:32;13.40;;;7.20;;
71038;SDS011;58692;43.212;27.908;2022-08-19T10:35:59;9.85;;;6.60;;
71038;SDS011;58692;43.212;27.908;2022-08-19T10:38:26;13.38;;;7.03;;
71038;SDS011;58692;43.212;27.908;2022-08-19T10:40:53;13.07;;;7.53;;
71038;SDS011;58692;43.212;27.908;2022-08-19T10:43:19;13.73;;;7.43;;
71038;SDS011;58692;43.212;27.908;2022-08-19T10:45:51;12.57;;;7.27;;
71038;SDS011;58692;43.212;27.908;2022-08-19T10:48:17;12.63;;;7.00;;
71038;SDS011;58692;43.212;27.908;2022-08-19T10:50:43;14.03;;;6.97;;
71038;SDS011;58692;43.212;27.908;2022-08-19T10:53:24;14.68;;;7.10;;
71038;SDS011;58692;43.212;27.908;2022-08-19T10:55:50;12.05;;;7.20;;
71038;SDS011;58692;43.212;27.908;2022-08-19T10:58:31;9.63;;;6.87;;
71038;SDS011;58692;43.212;27.908;2022-08-19T11:00:57;13.82;;;7.30;;
71038;SDS011;58692;43.212;27.908;2022-08-19T11:03:24;12.90;;;7.82;;
71038;SDS011;58692;43.212;27.908;2022-08-19T11:06:00;15.48;;;8.25;;
71038;SDS011;58692;43.212;27.908;2022-08-19T11:08:27;12.40;;;8.67;;
71038;SDS011;58692;43.212;27.908;2022-08-19T11:10:54;13.65;;;8.50;;
71038;SDS011;58692;43.212;27.908;2022-08-19T11:13:22;15.85;;;9.20;;
71038;SDS011;58692;43.212;27.908;2022-08-19T11:15:55;14.83;;;9.50;;
71038;SDS011;58692;43.212;27.908;2022-08-19T11:18:22;11.52;;;9.35;;
71038;SDS011;58692;43.212;27.908;2022-08-19T11:20:48;12.17;;;8.80;;
71038;SDS011;58692;43.212;27.908;2022-08-19T11:23:14;14.40;;;8.57;;
71038;SDS011;58692;43.212;27.908;2022-08-19T11:25:39;14.20;;;9.47;;
71038;SDS011;58692;43.212;27.908;2022-08-19T11:28:05;14.80;;;9.75;;
71038;SDS011;58692;43.212;27.908;2022-08-19T11:30:30;14.30;;;10.20;;
71038;SDS011;58692;43.212;27.908;2022-08-19T11:32:57;14.02;;;10.05;;
71038;SDS011;58692;43.212;27.908;2022-08-19T11:35:25;15.63;;;10.88;;
71038;SDS011;58692;43.212;27.908;2022-08-19T11:37:51;13.50;;;10.00;;
71038;SDS011;58692;43.212;27.908;2022-08-19T11:40:16;15.13;;;10.80;;
71038;SDS011;58692;43.212;27.908;2022-08-19T11:42:42;16.02;;;10.15;;
71038;SDS011;58692;43.212;27.908;2022-08-19T11:45:25;15.00;;;10.85;;
71038;SDS011;58692;43.212;27.908;2022-08-19T11:47:54;16.73;;;11.07;;
71038;SDS011;58692;43.212;27.908;2022-08-19T11:50:20;15.07;;;10.77;;
71038;SDS011;58692;43.212;27.908;2022-08-19T11:52:46;13.20;;;10.38;;
71038;SDS011;58692;43.212;27.908;2022-08-19T11:55:12;14.87;;;11.47;;
71038;SDS011;58692;43.212;27.908;2022-08-19T11:57:38;14.88;;;10.88;;
71038;SDS011;58692;43.212;27.908;2022-08-19T12:00:06;14.30;;;10.82;;
71038;SDS011;58692;43.212;27.908;2022-08-19T12:02:34;14.60;;;10.52;;
71038;SDS011;58692;43.212;27.908;2022-08-19T12:04:59;14.73;;;10.33;;
71038;SDS011;58692;43.212;27.908;2022-08-19T12:07:28;16.40;;;10.70;;
71038;SDS011;58692;43.212;27.908;2022-08-19T12:09:56;17.83;;;10.73;;
71038;SDS011;58692;43.212;27.908;2022-08-19T12:12:21;15.50;;;10.27;;
71038;SDS011;58692;43.212;27.908;2022-08-19T12:14:50;14.05;;;10.43;;
71038;SDS011;58692;43.212;27.908;2022-08-19T12:17:22;15.25;;;10.57;;
71038;SDS011;58692;43.212;27.908;2022-08-19T12:19:48;15.45;;;10.38;;
71038;SDS011;58692;43.212;27.908;2022-08-19T12:22:14;13.60;;;10.50;;
71038;SDS011;58692;43.212;27.908;2022-08-19T12:24:40;17.87;;;10.17;;
71038;SDS011;58692;43.212;27.908;2022-08-19T12:27:06;16.10;;;11.13;;
71038;SDS011;58692;43.212;27.908;2022-08-19T12:29:32;19.52;;;11.60;;
71038;SDS011;58692;43.212;27.908;2022-08-19T12:31:58;17.20;;;10.73;;
71038;SDS011;58692;43.212;27.908;2022-08-19T12:34:28;15.67;;;10.63;;
71038;SDS011;58692;43.212;27.908;2022-08-19T12:36:57;17.80;;;11.20;;
71038;SDS011;58692;43.212;27.908;2022-08-19T12:39:24;12.82;;;10.35;;
71038;SDS011;58692;43.212;27.908;2022-08-19T12:41:51;14.00;;;10.38;;
71038;SDS011;58692;43.212;27.908;2022-08-19T12:44:17;15.93;;;10.85;;
71038;SDS011;58692;43.212;27.908;2022-08-19T12:46:42;14.77;;;10.17;;
71038;SDS011;58692;43.212;27.908;2022-08-19T12:49:08;14.50;;;10.87;;
71038;SDS011;58692;43.212;27.908;2022-08-19T12:51:34;16.40;;;11.15;;
71038;SDS011;58692;43.212;27.908;2022-08-19T12:54:00;15.88;;;10.20;;
71038;SDS011;58692;43.212;27.908;2022-08-19T12:56:26;15.77;;;10.63;;
71038;SDS011;58692;43.212;27.908;2022-08-19T12:58:52;15.18;;;9.93;;
71038;SDS011;58692;43.212;27.908;2022-08-19T13:01:18;16.43;;;10.20;;
71038;SDS011;58692;43.212;27.908;2022-08-19T13:03:44;15.37;;;10.27;;
71038;SDS011;58692;43.212;27.908;2022-08-19T13:06:11;16.00;;;9.93;;
71038;SDS011;58692;43.212;27.908;2022-08-19T13:08:37;15.55;;;10.23;;
71038;SDS011;58692;43.212;27.908;2022-08-19T13:11:08;16.45;;;10.70;;
71038;SDS011;58692;43.212;27.908;2022-08-19T13:13:37;16.85;;;10.48;;
71038;SDS011;58692;43.212;27.908;2022-08-19T13:16:06;16.63;;;10.07;;
71038;SDS011;58692;43.212;27.908;2022-08-19T13:18:33;14.27;;;9.93;;
71038;SDS011;58692;43.212;27.908;2022-08-19T13:21:03;15.63;;;9.93;;
71038;SDS011;58692;43.212;27.908;2022-08-19T13:23:30;15.85;;;10.38;;
71038;SDS011;58692;43.212;27.908;2022-08-19T13:25:58;14.85;;;10.65;;
71038;SDS011;58692;43.212;27.908;2022-08-19T13:28:24;14.07;;;10.05;;
71038;SDS011;58692;43.212;27.908;2022-08-19T13:30:50;13.53;;;9.47;;
71038;SDS011;58692;43.212;27.908;2022-08-19T13:33:36;14.43;;;10.30;;
71038;SDS011;58692;43.212;27.908;2022-08-19T13:36:01;16.98;;;10.45;;
71038;SDS011;58692;43.212;27.908;2022-08-19T13:38:32;16.13;;;10.00;;
71038;SDS011;58692;43.212;27.908;2022-08-19T13:41:03;14.38;;;10.00;;
71038;SDS011;58692;43.212;27.908;2022-08-19T13:43:30;15.07;;;9.50;;
71038;SDS011;58692;43.212;27.908;2022-08-19T13:45:55;16.00;;;9.33;;
71038;SDS011;58692;43.212;27.908;2022-08-19T13:48:21;15.95;;;9.90;;
71038;SDS011;58692;43.212;27.908;2022-08-19T13:50:48;12.97;;;9.50;;
71038;SDS011;58692;43.212;27.908;2022-08-19T13:53:14;17.02;;;9.55;;
71038;SDS011;58692;43.212;27.908;2022-08-19T13:55:41;16.45;;;10.43;;
71038;SDS011;58692;43.212;27.908;2022-08-19T13:58:08;16.47;;;9.70;;
71038;SDS011;58692;43.212;27.908;2022-08-19T14:00:37;16.15;;;9.73;;
71038;SDS011;58692;43.212;27.908;2022-08-19T14:03:07;15.00;;;10.02;;
71038;SDS011;58692;43.212;27.908;2022-08-19T14:05:33;17.23;;;9.88;;
71038;SDS011;58692;43.212;27.908;2022-08-19T14:07:59;14.33;;;10.00;;
71038;SDS011;58692;43.212;27.908;2022-08-19T14:10:25;16.58;;;9.10;;
71038;SDS011;58692;43.212;27.908;2022-08-19T14:12:52;20.42;;;9.40;;
71038;SDS011;58692;43.212;27.908;2022-08-19T14:15:20;16.02;;;8.68;;
71038;SDS011;58692;43.212;27.908;2022-08-19T14:17:47;14.63;;;8.57;;
71038;SDS011;58692;43.212;27.908;2022-08-19T14:20:14;12.40;;;8.70;;
71038;SDS011;58692;43.212;27.908;2022-08-19T14:22:40;15.70;;;8.65;;
71038;SDS011;58692;43.212;27.908;2022-08-19T14:25:07;13.85;;;8.70;;
71038;SDS011;58692;43.212;27.908;2022-08-19T14:27:36;15.38;;;8.82;;
71038;SDS011;58692;43.212;27.908;2022-08-19T14:30:03;13.73;;;8.97;;
71038;SDS011;58692;43.212;27.908;2022-08-19T14:32:31;15.88;;;8.80;;
71038;SDS011;58692;43.212;27.908;2022-08-19T14:34:57;14.13;;;9.40;;
71038;SDS011;58692;43.212;27.908;2022-08-19T14:37:23;14.97;;;8.93;;